sensor_id;sensor_type;location;lat;lon;timestamp;P1;durP1;ratioP1;P2;durP2;ratioP2
18576;SDS011;9418;52.694;13.294;2023-07-20T00:02:15;3.30;;;2.60;;
18576;SDS011;9418;52.694;13.294;2023-07-20T00:04:42;4.30;;;2.50;;
18576;SDS011;9418;52.694;13.294;2023-07-20T00:07:08;3.60;;;2.60;;
18576;SDS011;9418;52.694;13.294;2023-07-20T00:09:35;2.40;;;2.20;;
18576;SDS011;9418;52.694;13.294;2023-07-20T00:12:02;3.93;;;2.80;;
18576;SDS011;9418;52.694;13.294;2023-07-20T00:14:30;4.80;;;2.47;;
18576;SDS011;9418;52.694;13.294;2023-07-20T00:16:56;4.20;;;2.57;;
18576;SDS011;9418;52.694;13.294;2023-07-20T00:19:23;2.93;;;2.63;;
18576;SDS011;9418;52.694;13.294;2023-07-20T00:21:50;7.47;;;3.30;;
18576;SDS011;9418;52.694;13.294;2023-07-20T00:24:16;9.63;;;2.20;;
18576;SDS011;9418;52.694;13.294;2023-07-20T00:26:43;4.20;;;2.10;;
18576;SDS011;9418;52.694;13.294;2023-07-20T00:29:10;3.30;;;2.10;;
18576;SDS011;9418;52.694;13.294;2023-07-20T00:31:38;10.90;;;2.83;;
18576;SDS011;9418;52.694;13.294;2023-07-20T00:34:04;5.87;;;2.67;;
18576;SDS011;9418;52.694;13.294;2023-07-20T00:36:31;5.73;;;2.97;;
18576;SDS011;9418;52.694;13.294;2023-07-20T00:38:57;8.17;;;3.07;;
18576;SDS011;9418;52.694;13.294;2023-07-20T00:41:23;5.27;;;2.50;;
18576;SDS011;9418;52.694;13.294;2023-07-20T00:43:54;7.20;;;2.20;;
18576;SDS011;9418;52.694;13.294;2023-07-20T00:46:20;4.00;;;3.00;;
18576;SDS011;9418;52.694;13.294;2023-07-20T00:48:50;6.30;;;3.00;;
18576;SDS011;9418;52.694;13.294;2023-07-20T00:51:17;4.70;;;2.30;;
18576;SDS011;9418;52.694;13.294;2023-07-20T00:53:44;3.10;;;2.90;;
18576;SDS011;9418;52.694;13.294;2023-07-20T00:56:10;8.63;;;2.93;;
18576;SDS011;9418;52.694;13.294;2023-07-20T00:58:37;3.33;;;2.73;;
18576;SDS011;9418;52.694;13.294;2023-07-20T01:01:04;2.90;;;2.70;;
18576;SDS011;9418;52.694;13.294;2023-07-20T01:03:30;4.30;;;2.70;;
18576;SDS011;9418;52.694;13.294;2023-07-20T01:06:00;7.23;;;2.60;;
18576;SDS011;9418;52.694;13.294;2023-07-20T01:08:36;7.07;;;3.07;;
18576;SDS011;9418;52.694;13.294;2023-07-20T01:11:08;2.70;;;2.50;;
18576;SDS011;9418;52.694;13.294;2023-07-20T01:13:38;2.60;;;2.40;;
18576;SDS011;9418;52.694;13.294;2023-07-20T01:16:05;3.00;;;2.70;;
18576;SDS011;9418;52.694;13.294;2023-07-20T01:18:32;2.57;;;2.30;;
18576;SDS011;9418;52.694;13.294;2023-07-20T01:21:01;4.57;;;2.57;;
18576;SDS011;9418;52.694;13.294;2023-07-20T01:23:41;2.90;;;2.73;;
18576;SDS011;9418;52.694;13.294;2023-07-20T01:26:38;3.40;;;3.10;;
18576;SDS011;9418;52.694;13.294;2023-07-20T01:29:34;3.33;;;2.80;;
18576;SDS011;9418;52.694;13.294;2023-07-20T01:32:16;2.97;;;2.70;;
18576;SDS011;9418;52.694;13.294;2023-07-20T01:34:44;2.70;;;2.50;;
18576;SDS011;9418;52.694;13.294;2023-07-20T01:37:13;2.73;;;2.53;;
18576;SDS011;9418;52.694;13.294;2023-07-20T01:39:45;2.77;;;2.57;;
18576;SDS011;9418;52.694;13.294;2023-07-20T01:42:12;3.20;;;2.43;;
18576;SDS011;9418;52.694;13.294;2023-07-20T01:44:38;6.30;;;3.13;;
18576;SDS011;9418;52.694;13.294;2023-07-20T01:47:05;5.40;;;3.20;;
18576;SDS011;9418;52.694;13.294;2023-07-20T01:49:33;3.70;;;3.10;;
18576;SDS011;9418;52.694;13.294;2023-07-20T01:51:59;3.53;;;2.70;;
18576;SDS011;9418;52.694;13.294;2023-07-20T01:54:26;4.40;;;4.00;;
18576;SDS011;9418;52.694;13.294;2023-07-20T01:56:52;10.80;;;3.80;;
18576;SDS011;9418;52.694;13.294;2023-07-20T01:59:19;4.70;;;3.97;;
18576;SDS011;9418;52.694;13.294;2023-07-20T02:01:46;4.93;;;3.40;;
18576;SDS011;9418;52.694;13.294;2023-07-20T02:04:12;9.20;;;5.30;;
18576;SDS011;9418;52.694;13.294;2023-07-20T02:06:40;5.20;;;4.70;;
18576;SDS011;9418;52.694;13.294;2023-07-20T02:09:07;5.23;;;4.70;;
18576;SDS011;9418;52.694;13.294;2023-07-20T02:11:34;6.23;;;5.60;;
18576;SDS011;9418;52.694;13.294;2023-07-20T02:14:00;10.70;;;4.40;;
18576;SDS011;9418;52.694;13.294;2023-07-20T02:16:27;5.57;;;4.97;;
18576;SDS011;9418;52.694;13.294;2023-07-20T02:18:53;5.40;;;4.60;;
18576;SDS011;9418;52.694;13.294;2023-07-20T02:21:21;6.80;;;5.90;;
18576;SDS011;9418;52.694;13.294;2023-07-20T02:23:49;10.30;;;5.00;;
18576;SDS011;9418;52.694;13.294;2023-07-20T02:26:16;5.90;;;5.40;;
18576;SDS011;9418;52.694;13.294;2023-07-20T02:28:42;6.07;;;5.57;;
18576;SDS011;9418;52.694;13.294;2023-07-20T02:31:09;7.27;;;6.63;;
18576;SDS011;9418;52.694;13.294;2023-07-20T02:33:35;6.90;;;6.30;;
18576;SDS011;9418;52.694;13.294;2023-07-20T02:36:02;9.47;;;7.43;;
18576;SDS011;9418;52.694;13.294;2023-07-20T02:38:28;9.30;;;8.40;;
18576;SDS011;9418;52.694;13.294;2023-07-20T02:40:56;9.63;;;8.40;;
18576;SDS011;9418;52.694;13.294;2023-07-20T02:43:23;12.27;;;9.20;;
18576;SDS011;9418;52.694;13.294;2023-07-20T02:45:49;11.10;;;8.60;;
18576;SDS011;9418;52.694;13.294;2023-07-20T02:48:16;9.90;;;8.20;;
18576;SDS011;9418;52.694;13.294;2023-07-20T02:50:43;9.83;;;8.93;;
18576;SDS011;9418;52.694;13.294;2023-07-20T02:53:10;12.90;;;9.80;;
18576;SDS011;9418;52.694;13.294;2023-07-20T02:55:37;9.30;;;8.40;;
18576;SDS011;9418;52.694;13.294;2023-07-20T02:58:04;12.40;;;8.80;;
18576;SDS011;9418;52.694;13.294;2023-07-20T03:00:31;16.00;;;9.60;;
18576;SDS011;9418;52.694;13.294;2023-07-20T03:02:58;9.37;;;8.37;;
18576;SDS011;9418;52.694;13.294;2023-07-20T03:05:25;10.20;;;8.77;;
18576;SDS011;9418;52.694;13.294;2023-07-20T03:07:53;13.07;;;10.77;;
18576;SDS011;9418;52.694;13.294;2023-07-20T03:10:19;14.47;;;10.57;;
18576;SDS011;9418;52.694;13.294;2023-07-20T03:12:46;10.10;;;9.13;;
18576;SDS011;9418;52.694;13.294;2023-07-20T03:15:14;12.63;;;10.50;;
18576;SDS011;9418;52.694;13.294;2023-07-20T03:17:40;12.47;;;10.30;;
18576;SDS011;9418;52.694;13.294;2023-07-20T03:20:07;10.97;;;9.90;;
18576;SDS011;9418;52.694;13.294;2023-07-20T03:22:35;13.80;;;10.30;;
18576;SDS011;9418;52.694;13.294;2023-07-20T03:25:02;11.40;;;10.00;;
18576;SDS011;9418;52.694;13.294;2023-07-20T03:27:29;10.90;;;9.10;;
18576;SDS011;9418;52.694;13.294;2023-07-20T03:29:55;13.23;;;9.73;;
18576;SDS011;9418;52.694;13.294;2023-07-20T03:32:23;11.10;;;10.00;;
18576;SDS011;9418;52.694;13.294;2023-07-20T03:34:50;13.60;;;10.83;;
18576;SDS011;9418;52.694;13.294;2023-07-20T03:37:16;10.93;;;9.77;;
18576;SDS011;9418;52.694;13.294;2023-07-20T03:39:43;11.87;;;10.20;;
18576;SDS011;9418;52.694;13.294;2023-07-20T03:42:09;10.67;;;9.60;;
18576;SDS011;9418;52.694;13.294;2023-07-20T03:44:36;10.60;;;9.50;;
18576;SDS011;9418;52.694;13.294;2023-07-20T03:47:02;11.40;;;9.40;;
18576;SDS011;9418;52.694;13.294;2023-07-20T03:49:31;11.10;;;9.90;;
18576;SDS011;9418;52.694;13.294;2023-07-20T03:51:57;11.13;;;9.40;;
18576;SDS011;9418;52.694;13.294;2023-07-20T03:54:24;12.60;;;9.67;;
18576;SDS011;9418;52.694;13.294;2023-07-20T03:56:50;10.60;;;9.17;;
18576;SDS011;9418;52.694;13.294;2023-07-20T03:59:17;10.10;;;9.20;;
18576;SDS011;9418;52.694;13.294;2023-07-20T04:01:43;11.60;;;9.63;;
18576;SDS011;9418;52.694;13.294;2023-07-20T04:04:10;11.20;;;10.00;;
18576;SDS011;9418;52.694;13.294;2023-07-20T04:06:38;9.63;;;8.83;;
18576;SDS011;9418;52.694;13.294;2023-07-20T04:09:04;9.33;;;8.43;;
18576;SDS011;9418;52.694;13.294;2023-07-20T04:11:31;9.97;;;8.97;;
18576;SDS011;9418;52.694;13.294;2023-07-20T04:13:57;9.70;;;8.80;;
18576;SDS011;9418;52.694;13.294;2023-07-20T04:16:24;9.17;;;8.17;;
18576;SDS011;9418;52.694;13.294;2023-07-20T04:18:51;9.30;;;8.40;;
18576;SDS011;9418;52.694;13.294;2023-07-20T04:21:17;15.97;;;9.00;;
18576;SDS011;9418;52.694;13.294;2023-07-20T04:23:45;8.80;;;8.10;;
18576;SDS011;9418;52.694;13.294;2023-07-20T04:26:12;8.93;;;8.03;;
18576;SDS011;9418;52.694;13.294;2023-07-20T04:28:39;8.93;;;8.07;;
18576;SDS011;9418;52.694;13.294;2023-07-20T04:31:10;10.90;;;8.83;;
18576;SDS011;9418;52.694;13.294;2023-07-20T04:33:37;8.43;;;7.73;;
18576;SDS011;9418;52.694;13.294;2023-07-20T04:36:04;9.37;;;8.17;;
18576;SDS011;9418;52.694;13.294;2023-07-20T04:38:30;8.17;;;7.53;;
18576;SDS011;9418;52.694;13.294;2023-07-20T04:40:58;7.00;;;6.40;;
18576;SDS011;9418;52.694;13.294;2023-07-20T04:43:25;7.73;;;7.03;;
18576;SDS011;9418;52.694;13.294;2023-07-20T04:45:52;7.40;;;6.70;;
18576;SDS011;9418;52.694;13.294;2023-07-20T04:48:18;8.30;;;7.43;;
18576;SDS011;9418;52.694;13.294;2023-07-20T04:50:45;9.40;;;8.27;;
18576;SDS011;9418;52.694;13.294;2023-07-20T04:53:11;9.03;;;8.00;;
18576;SDS011;9418;52.694;13.294;2023-07-20T04:55:39;7.50;;;6.90;;
18576;SDS011;9418;52.694;13.294;2023-07-20T04:58:07;10.47;;;6.73;;
18576;SDS011;9418;52.694;13.294;2023-07-20T05:00:34;9.23;;;7.30;;
18576;SDS011;9418;52.694;13.294;2023-07-20T05:03:01;7.33;;;6.57;;
18576;SDS011;9418;52.694;13.294;2023-07-20T05:05:30;8.37;;;7.13;;
18576;SDS011;9418;52.694;13.294;2023-07-20T05:07:56;7.90;;;7.03;;
18576;SDS011;9418;52.694;13.294;2023-07-20T05:10:23;9.77;;;7.17;;
18576;SDS011;9418;52.694;13.294;2023-07-20T05:12:49;6.73;;;6.17;;
18576;SDS011;9418;52.694;13.294;2023-07-20T05:15:17;9.10;;;6.97;;
18576;SDS011;9418;52.694;13.294;2023-07-20T05:17:44;8.47;;;6.17;;
18576;SDS011;9418;52.694;13.294;2023-07-20T05:20:11;7.50;;;6.60;;
18576;SDS011;9418;52.694;13.294;2023-07-20T05:22:38;9.83;;;6.33;;
18576;SDS011;9418;52.694;13.294;2023-07-20T05:25:06;7.13;;;6.40;;
18576;SDS011;9418;52.694;13.294;2023-07-20T05:27:33;8.93;;;5.30;;
18576;SDS011;9418;52.694;13.294;2023-07-20T05:30:00;9.37;;;5.90;;
18576;SDS011;9418;52.694;13.294;2023-07-20T05:32:28;6.57;;;5.87;;
18576;SDS011;9418;52.694;13.294;2023-07-20T05:34:55;5.43;;;4.93;;
18576;SDS011;9418;52.694;13.294;2023-07-20T05:37:21;10.43;;;5.67;;
18576;SDS011;9418;52.694;13.294;2023-07-20T05:39:48;6.00;;;5.40;;
18576;SDS011;9418;52.694;13.294;2023-07-20T05:42:15;8.10;;;5.87;;
18576;SDS011;9418;52.694;13.294;2023-07-20T05:44:41;6.53;;;5.20;;
18576;SDS011;9418;52.694;13.294;2023-07-20T05:47:08;7.67;;;5.57;;
18576;SDS011;9418;52.694;13.294;2023-07-20T05:49:36;7.00;;;5.30;;
18576;SDS011;9418;52.694;13.294;2023-07-20T05:52:02;5.77;;;5.33;;
18576;SDS011;9418;52.694;13.294;2023-07-20T05:54:29;6.10;;;5.50;;
18576;SDS011;9418;52.694;13.294;2023-07-20T05:56:56;7.10;;;5.60;;
18576;SDS011;9418;52.694;13.294;2023-07-20T05:59:22;6.20;;;5.03;;
18576;SDS011;9418;52.694;13.294;2023-07-20T06:01:50;9.53;;;5.77;;
18576;SDS011;9418;52.694;13.294;2023-07-20T06:04:16;9.57;;;6.13;;
18576;SDS011;9418;52.694;13.294;2023-07-20T06:06:44;6.43;;;5.50;;
18576;SDS011;9418;52.694;13.294;2023-07-20T06:09:11;5.33;;;4.83;;
18576;SDS011;9418;52.694;13.294;2023-07-20T06:11:37;4.83;;;4.43;;
18576;SDS011;9418;52.694;13.294;2023-07-20T06:14:04;4.20;;;3.90;;
18576;SDS011;9418;52.694;13.294;2023-07-20T06:16:31;8.17;;;4.13;;
18576;SDS011;9418;52.694;13.294;2023-07-20T06:18:58;4.13;;;3.73;;
18576;SDS011;9418;52.694;13.294;2023-07-20T06:21:25;4.93;;;3.80;;
18576;SDS011;9418;52.694;13.294;2023-07-20T06:23:53;3.87;;;3.37;;
18576;SDS011;9418;52.694;13.294;2023-07-20T06:26:20;4.43;;;2.47;;
18576;SDS011;9418;52.694;13.294;2023-07-20T06:28:46;10.97;;;2.50;;
18576;SDS011;9418;52.694;13.294;2023-07-20T06:31:13;6.10;;;2.47;;
18576;SDS011;9418;52.694;13.294;2023-07-20T06:33:39;4.40;;;2.57;;
18576;SDS011;9418;52.694;13.294;2023-07-20T06:36:06;3.67;;;2.80;;
18576;SDS011;9418;52.694;13.294;2023-07-20T06:38:32;9.00;;;2.70;;
18576;SDS011;9418;52.694;13.294;2023-07-20T06:41:00;2.93;;;2.30;;
18576;SDS011;9418;52.694;13.294;2023-07-20T06:43:27;8.10;;;2.23;;
18576;SDS011;9418;52.694;13.294;2023-07-20T06:45:53;4.03;;;1.90;;
18576;SDS011;9418;52.694;13.294;2023-07-20T06:48:21;2.30;;;2.20;;
18576;SDS011;9418;52.694;13.294;2023-07-20T06:50:47;1.60;;;1.50;;
18576;SDS011;9418;52.694;13.294;2023-07-20T06:53:14;4.30;;;1.50;;
18576;SDS011;9418;52.694;13.294;2023-07-20T06:55:41;2.90;;;1.90;;
18576;SDS011;9418;52.694;13.294;2023-07-20T06:58:10;9.13;;;2.30;;
18576;SDS011;9418;52.694;13.294;2023-07-20T07:00:36;2.13;;;1.93;;
18576;SDS011;9418;52.694;13.294;2023-07-20T07:03:03;7.20;;;1.63;;
18576;SDS011;9418;52.694;13.294;2023-07-20T07:05:29;2.23;;;1.40;;
18576;SDS011;9418;52.694;13.294;2023-07-20T07:07:56;4.47;;;1.20;;
18576;SDS011;9418;52.694;13.294;2023-07-20T07:10:22;2.80;;;1.10;;
18576;SDS011;9418;52.694;13.294;2023-07-20T07:12:49;1.63;;;1.13;;
18576;SDS011;9418;52.694;13.294;2023-07-20T07:15:17;1.67;;;1.23;;
18576;SDS011;9418;52.694;13.294;2023-07-20T07:17:44;4.00;;;1.00;;
18576;SDS011;9418;52.694;13.294;2023-07-20T07:20:10;2.17;;;0.97;;
18576;SDS011;9418;52.694;13.294;2023-07-20T07:22:37;3.10;;;1.27;;
18576;SDS011;9418;52.694;13.294;2023-07-20T07:25:04;5.03;;;1.00;;
18576;SDS011;9418;52.694;13.294;2023-07-20T07:27:32;5.40;;;1.20;;
18576;SDS011;9418;52.694;13.294;2023-07-20T07:29:59;4.50;;;1.00;;
18576;SDS011;9418;52.694;13.294;2023-07-20T07:32:27;3.23;;;1.03;;
18576;SDS011;9418;52.694;13.294;2023-07-20T07:34:53;2.23;;;1.23;;
18576;SDS011;9418;52.694;13.294;2023-07-20T07:37:20;1.70;;;0.83;;
18576;SDS011;9418;52.694;13.294;2023-07-20T07:39:46;1.30;;;1.20;;
18576;SDS011;9418;52.694;13.294;2023-07-20T07:42:13;4.20;;;1.50;;
18576;SDS011;9418;52.694;13.294;2023-07-20T07:44:40;12.30;;;1.57;;
18576;SDS011;9418;52.694;13.294;2023-07-20T07:47:06;4.00;;;1.20;;
18576;SDS011;9418;52.694;13.294;2023-07-20T07:49:34;1.50;;;0.90;;
18576;SDS011;9418;52.694;13.294;2023-07-20T07:52:01;3.03;;;0.80;;
18576;SDS011;9418;52.694;13.294;2023-07-20T07:54:28;0.87;;;0.80;;
18576;SDS011;9418;52.694;13.294;2023-07-20T07:56:54;3.13;;;0.90;;
18576;SDS011;9418;52.694;13.294;2023-07-20T07:59:21;1.57;;;0.80;;
18576;SDS011;9418;52.694;13.294;2023-07-20T08:01:47;2.10;;;0.90;;
18576;SDS011;9418;52.694;13.294;2023-07-20T08:04:14;2.07;;;1.00;;
18576;SDS011;9418;52.694;13.294;2023-07-20T08:06:42;0.60;;;0.50;;
18576;SDS011;9418;52.694;13.294;2023-07-20T08:09:08;10.63;;;1.10;;
18576;SDS011;9418;52.694;13.294;2023-07-20T08:11:35;2.40;;;1.07;;
18576;SDS011;9418;52.694;13.294;2023-07-20T08:14:02;1.10;;;0.80;;
18576;SDS011;9418;52.694;13.294;2023-07-20T08:16:28;3.60;;;1.10;;
18576;SDS011;9418;52.694;13.294;2023-07-20T08:18:55;3.53;;;0.90;;
18576;SDS011;9418;52.694;13.294;2023-07-20T08:21:21;2.83;;;0.90;;
18576;SDS011;9418;52.694;13.294;2023-07-20T08:23:49;3.43;;;0.70;;
18576;SDS011;9418;52.694;13.294;2023-07-20T08:26:16;1.23;;;0.80;;
18576;SDS011;9418;52.694;13.294;2023-07-20T08:28:43;6.23;;;0.67;;
18576;SDS011;9418;52.694;13.294;2023-07-20T08:31:10;0.73;;;0.70;;
18576;SDS011;9418;52.694;13.294;2023-07-20T08:33:37;0.60;;;0.53;;
18576;SDS011;9418;52.694;13.294;2023-07-20T08:36:03;1.57;;;0.70;;
18576;SDS011;9418;52.694;13.294;2023-07-20T08:38:30;8.43;;;0.67;;
18576;SDS011;9418;52.694;13.294;2023-07-20T08:40:58;1.00;;;0.60;;
18576;SDS011;9418;52.694;13.294;2023-07-20T08:43:26;6.13;;;0.90;;
18576;SDS011;9418;52.694;13.294;2023-07-20T08:45:54;3.73;;;1.10;;
18576;SDS011;9418;52.694;13.294;2023-07-20T08:48:21;3.97;;;0.80;;
18576;SDS011;9418;52.694;13.294;2023-07-20T08:50:49;3.13;;;0.70;;
18576;SDS011;9418;52.694;13.294;2023-07-20T08:53:17;3.50;;;0.70;;
18576;SDS011;9418;52.694;13.294;2023-07-20T08:55:44;2.20;;;0.80;;
18576;SDS011;9418;52.694;13.294;2023-07-20T08:58:13;1.37;;;0.70;;
18576;SDS011;9418;52.694;13.294;2023-07-20T09:00:41;3.60;;;0.80;;
18576;SDS011;9418;52.694;13.294;2023-07-20T09:03:08;6.10;;;1.10;;
18576;SDS011;9418;52.694;13.294;2023-07-20T09:05:34;0.77;;;0.67;;
18576;SDS011;9418;52.694;13.294;2023-07-20T09:08:01;0.73;;;0.70;;
18576;SDS011;9418;52.694;13.294;2023-07-20T09:10:29;2.03;;;0.93;;
18576;SDS011;9418;52.694;13.294;2023-07-20T09:12:55;1.93;;;0.87;;
18576;SDS011;9418;52.694;13.294;2023-07-20T09:15:23;1.90;;;0.80;;
18576;SDS011;9418;52.694;13.294;2023-07-20T09:17:50;1.50;;;0.90;;
18576;SDS011;9418;52.694;13.294;2023-07-20T09:20:19;1.50;;;0.90;;
18576;SDS011;9418;52.694;13.294;2023-07-20T09:22:46;1.33;;;0.70;;
18576;SDS011;9418;52.694;13.294;2023-07-20T09:25:13;2.77;;;0.90;;
18576;SDS011;9418;52.694;13.294;2023-07-20T09:27:40;2.03;;;0.93;;
18576;SDS011;9418;52.694;13.294;2023-07-20T09:30:08;4.30;;;1.10;;
18576;SDS011;9418;52.694;13.294;2023-07-20T09:32:39;4.10;;;0.90;;
18576;SDS011;9418;52.694;13.294;2023-07-20T09:35:12;1.83;;;1.17;;
18576;SDS011;9418;52.694;13.294;2023-07-20T09:37:41;2.03;;;0.97;;
18576;SDS011;9418;52.694;13.294;2023-07-20T09:40:14;2.93;;;0.70;;
18576;SDS011;9418;52.694;13.294;2023-07-20T09:42:41;1.60;;;0.80;;
18576;SDS011;9418;52.694;13.294;2023-07-20T09:45:08;0.97;;;0.60;;
18576;SDS011;9418;52.694;13.294;2023-07-20T09:47:36;2.37;;;0.93;;
18576;SDS011;9418;52.694;13.294;2023-07-20T09:50:05;2.83;;;0.70;;
18576;SDS011;9418;52.694;13.294;2023-07-20T09:52:35;5.90;;;1.40;;
18576;SDS011;9418;52.694;13.294;2023-07-20T09:55:04;3.70;;;0.77;;
18576;SDS011;9418;52.694;13.294;2023-07-20T09:57:32;1.03;;;0.77;;
18576;SDS011;9418;52.694;13.294;2023-07-20T09:59:59;0.70;;;0.50;;
18576;SDS011;9418;52.694;13.294;2023-07-20T10:02:27;0.90;;;0.60;;
18576;SDS011;9418;52.694;13.294;2023-07-20T10:04:58;2.50;;;0.70;;
18576;SDS011;9418;52.694;13.294;2023-07-20T10:07:29;3.57;;;0.83;;
18576;SDS011;9418;52.694;13.294;2023-07-20T10:09:56;8.10;;;0.90;;
18576;SDS011;9418;52.694;13.294;2023-07-20T10:12:28;1.27;;;0.80;;
18576;SDS011;9418;52.694;13.294;2023-07-20T10:14:58;1.20;;;0.50;;
18576;SDS011;9418;52.694;13.294;2023-07-20T10:17:30;3.70;;;0.80;;
18576;SDS011;9418;52.694;13.294;2023-07-20T10:19:57;2.00;;;0.70;;
18576;SDS011;9418;52.694;13.294;2023-07-20T10:22:33;1.33;;;1.23;;
18576;SDS011;9418;52.694;13.294;2023-07-20T10:25:02;15.50;;;2.30;;
18576;SDS011;9418;52.694;13.294;2023-07-20T10:27:30;1.33;;;0.80;;
18576;SDS011;9418;52.694;13.294;2023-07-20T10:29:57;0.73;;;0.67;;
18576;SDS011;9418;52.694;13.294;2023-07-20T10:32:26;1.53;;;0.97;;
18576;SDS011;9418;52.694;13.294;2023-07-20T10:34:55;1.53;;;0.70;;
18576;SDS011;9418;52.694;13.294;2023-07-20T10:40:28;0.83;;;0.70;;
18576;SDS011;9418;52.694;13.294;2023-07-20T10:42:57;2.47;;;0.80;;
18576;SDS011;9418;52.694;13.294;2023-07-20T10:45:41;10.97;;;0.90;;
18576;SDS011;9418;52.694;13.294;2023-07-20T10:48:15;1.67;;;0.80;;
18576;SDS011;9418;52.694;13.294;2023-07-20T10:50:44;1.20;;;1.07;;
18576;SDS011;9418;52.694;13.294;2023-07-20T10:53:13;1.43;;;0.70;;
18576;SDS011;9418;52.694;13.294;2023-07-20T10:55:41;0.80;;;0.80;;
18576;SDS011;9418;52.694;13.294;2023-07-20T10:58:09;8.77;;;1.20;;
18576;SDS011;9418;52.694;13.294;2023-07-20T11:00:37;0.80;;;0.63;;
18576;SDS011;9418;52.694;13.294;2023-07-20T11:03:04;2.87;;;1.00;;
18576;SDS011;9418;52.694;13.294;2023-07-20T11:05:34;1.27;;;0.70;;
18576;SDS011;9418;52.694;13.294;2023-07-20T11:08:03;11.87;;;1.10;;
18576;SDS011;9418;52.694;13.294;2023-07-20T11:10:31;4.13;;;0.80;;
18576;SDS011;9418;52.694;13.294;2023-07-20T11:15:45;9.47;;;0.80;;
18576;SDS011;9418;52.694;13.294;2023-07-20T11:18:12;1.37;;;0.73;;
18576;SDS011;9418;52.694;13.294;2023-07-20T11:20:40;7.40;;;0.80;;
18576;SDS011;9418;52.694;13.294;2023-07-20T11:23:06;1.20;;;0.70;;
18576;SDS011;9418;52.694;13.294;2023-07-20T11:25:39;2.80;;;1.10;;
18576;SDS011;9418;52.694;13.294;2023-07-20T11:28:06;0.60;;;0.50;;
18576;SDS011;9418;52.694;13.294;2023-07-20T11:30:34;0.70;;;0.63;;
18576;SDS011;9418;52.694;13.294;2023-07-20T11:33:01;1.10;;;0.50;;
18576;SDS011;9418;52.694;13.294;2023-07-20T11:35:27;1.23;;;0.77;;
18576;SDS011;9418;52.694;13.294;2023-07-20T11:37:54;0.90;;;0.80;;
18576;SDS011;9418;52.694;13.294;2023-07-20T11:40:21;1.07;;;0.87;;
18576;SDS011;9418;52.694;13.294;2023-07-20T11:42:50;0.87;;;0.70;;
18576;SDS011;9418;52.694;13.294;2023-07-20T11:45:17;1.47;;;0.60;;
18576;SDS011;9418;52.694;13.294;2023-07-20T11:47:44;1.10;;;1.00;;
18576;SDS011;9418;52.694;13.294;2023-07-20T11:50:11;2.73;;;0.80;;
18576;SDS011;9418;52.694;13.294;2023-07-20T11:52:38;1.53;;;0.60;;
18576;SDS011;9418;52.694;13.294;2023-07-20T11:55:06;1.43;;;0.97;;
18576;SDS011;9418;52.694;13.294;2023-07-20T11:57:33;1.80;;;0.70;;
18576;SDS011;9418;52.694;13.294;2023-07-20T12:00:02;0.70;;;0.60;;
18576;SDS011;9418;52.694;13.294;2023-07-20T12:02:34;2.97;;;0.57;;
18576;SDS011;9418;52.694;13.294;2023-07-20T12:05:02;0.90;;;0.60;;
18576;SDS011;9418;52.694;13.294;2023-07-20T12:07:28;0.97;;;0.63;;
18576;SDS011;9418;52.694;13.294;2023-07-20T12:10:05;0.73;;;0.73;;
18576;SDS011;9418;52.694;13.294;2023-07-20T12:12:33;2.70;;;0.80;;
18576;SDS011;9418;52.694;13.294;2023-07-20T12:15:14;8.23;;;0.90;;
18576;SDS011;9418;52.694;13.294;2023-07-20T12:17:41;0.80;;;0.80;;
18576;SDS011;9418;52.694;13.294;2023-07-20T12:20:09;1.23;;;0.77;;
18576;SDS011;9418;52.694;13.294;2023-07-20T12:22:38;0.60;;;0.50;;
18576;SDS011;9418;52.694;13.294;2023-07-20T12:25:05;0.60;;;0.47;;
18576;SDS011;9418;52.694;13.294;2023-07-20T12:27:32;3.07;;;0.50;;
18576;SDS011;9418;52.694;13.294;2023-07-20T12:29:58;0.80;;;0.60;;
18576;SDS011;9418;52.694;13.294;2023-07-20T12:32:26;1.50;;;0.60;;
18576;SDS011;9418;52.694;13.294;2023-07-20T12:34:53;1.23;;;0.67;;
18576;SDS011;9418;52.694;13.294;2023-07-20T12:37:19;1.40;;;0.70;;
18576;SDS011;9418;52.694;13.294;2023-07-20T12:39:46;0.83;;;0.60;;
18576;SDS011;9418;52.694;13.294;2023-07-20T12:42:12;0.50;;;0.40;;
18576;SDS011;9418;52.694;13.294;2023-07-20T12:44:40;0.80;;;0.70;;
18576;SDS011;9418;52.694;13.294;2023-07-20T12:47:06;1.10;;;0.50;;
18576;SDS011;9418;52.694;13.294;2023-07-20T12:49:34;9.20;;;0.70;;
18576;SDS011;9418;52.694;13.294;2023-07-20T12:52:01;3.03;;;0.40;;
18576;SDS011;9418;52.694;13.294;2023-07-20T12:54:28;1.83;;;0.50;;
18576;SDS011;9418;52.694;13.294;2023-07-20T12:56:54;0.80;;;0.60;;
18576;SDS011;9418;52.694;13.294;2023-07-20T12:59:21;0.60;;;0.43;;
18576;SDS011;9418;52.694;13.294;2023-07-20T13:01:47;1.30;;;0.70;;
18576;SDS011;9418;52.694;13.294;2023-07-20T13:04:14;5.07;;;0.60;;
18576;SDS011;9418;52.694;13.294;2023-07-20T13:06:42;7.87;;;0.60;;
18576;SDS011;9418;52.694;13.294;2023-07-20T13:09:08;4.43;;;0.60;;
18576;SDS011;9418;52.694;13.294;2023-07-20T13:11:35;0.80;;;0.60;;
18576;SDS011;9418;52.694;13.294;2023-07-20T13:14:02;0.70;;;0.40;;
18576;SDS011;9418;52.694;13.294;2023-07-20T13:16:28;0.70;;;0.60;;
18576;SDS011;9418;52.694;13.294;2023-07-20T13:18:55;4.33;;;0.70;;
18576;SDS011;9418;52.694;13.294;2023-07-20T13:21:21;1.93;;;0.53;;
18576;SDS011;9418;52.694;13.294;2023-07-20T13:23:51;2.40;;;0.80;;
18576;SDS011;9418;52.694;13.294;2023-07-20T13:26:17;4.77;;;0.40;;
18576;SDS011;9418;52.694;13.294;2023-07-20T13:28:44;5.60;;;1.03;;
18576;SDS011;9418;52.694;13.294;2023-07-20T13:31:11;0.60;;;0.60;;
18576;SDS011;9418;52.694;13.294;2023-07-20T13:33:37;1.37;;;0.53;;
18576;SDS011;9418;52.694;13.294;2023-07-20T13:36:04;1.27;;;0.90;;
18576;SDS011;9418;52.694;13.294;2023-07-20T13:38:31;0.60;;;0.50;;
18576;SDS011;9418;52.694;13.294;2023-07-20T13:40:59;0.93;;;0.70;;
18576;SDS011;9418;52.694;13.294;2023-07-20T13:43:25;0.60;;;0.43;;
18576;SDS011;9418;52.694;13.294;2023-07-20T13:45:52;3.10;;;0.70;;
18576;SDS011;9418;52.694;13.294;2023-07-20T13:48:19;3.90;;;0.87;;
18576;SDS011;9418;52.694;13.294;2023-07-20T13:50:48;0.70;;;0.60;;
18576;SDS011;9418;52.694;13.294;2023-07-20T13:53:14;1.10;;;0.40;;
18576;SDS011;9418;52.694;13.294;2023-07-20T13:55:41;4.00;;;0.77;;
18576;SDS011;9418;52.694;13.294;2023-07-20T13:58:09;3.47;;;0.80;;
18576;SDS011;9418;52.694;13.294;2023-07-20T14:00:36;1.93;;;0.77;;
18576;SDS011;9418;52.694;13.294;2023-07-20T14:03:02;0.90;;;0.30;;
18576;SDS011;9418;52.694;13.294;2023-07-20T14:05:29;1.80;;;0.70;;
18576;SDS011;9418;52.694;13.294;2023-07-20T14:07:55;0.70;;;0.70;;
18576;SDS011;9418;52.694;13.294;2023-07-20T14:10:22;0.60;;;0.50;;
18576;SDS011;9418;52.694;13.294;2023-07-20T14:12:49;0.80;;;0.60;;
18576;SDS011;9418;52.694;13.294;2023-07-20T14:15:17;4.30;;;0.87;;
18576;SDS011;9418;52.694;13.294;2023-07-20T14:17:44;2.83;;;0.77;;
18576;SDS011;9418;52.694;13.294;2023-07-20T14:20:11;2.87;;;0.60;;
18576;SDS011;9418;52.694;13.294;2023-07-20T14:22:38;3.50;;;0.77;;
18576;SDS011;9418;52.694;13.294;2023-07-20T14:25:07;0.70;;;0.60;;
18576;SDS011;9418;52.694;13.294;2023-07-20T14:27:34;2.80;;;0.40;;
18576;SDS011;9418;52.694;13.294;2023-07-20T14:30:00;1.93;;;0.97;;
18576;SDS011;9418;52.694;13.294;2023-07-20T14:32:28;0.90;;;0.53;;
18576;SDS011;9418;52.694;13.294;2023-07-20T14:34:56;2.77;;;0.83;;
18576;SDS011;9418;52.694;13.294;2023-07-20T14:37:22;2.20;;;0.63;;
18576;SDS011;9418;52.694;13.294;2023-07-20T14:39:49;6.43;;;0.60;;
18576;SDS011;9418;52.694;13.294;2023-07-20T14:42:15;0.80;;;0.77;;
18576;SDS011;9418;52.694;13.294;2023-07-20T14:44:43;2.80;;;0.73;;
18576;SDS011;9418;52.694;13.294;2023-07-20T14:47:09;3.43;;;1.00;;
18576;SDS011;9418;52.694;13.294;2023-07-20T14:49:37;0.60;;;0.53;;
18576;SDS011;9418;52.694;13.294;2023-07-20T14:52:04;1.30;;;0.53;;
18576;SDS011;9418;52.694;13.294;2023-07-20T14:54:31;1.80;;;0.90;;